Time;durP1;ratioP1;P1;durP2;ratioP2;P2;SDS_P1;SDS_P2;PMS_P1;PMS_P2;Temp;Humidity;BMP_temperature;BMP_pressure;BME280_temperature;BME280_humidity;BME280_pressure;Samples;Min_cycle;Max_cycle;Signal;HPM_P1;HPM_P2
2022/08/16 00:02:28;;;;;;;5.82;3.40;;;;;;;16.54;74.97;93392.59;5028788;28;20413;-67
2022/08/16 00:04:55;;;;;;;6.13;3.60;;;;;;;16.56;75.12;93388.16;5029730;28;20048;-72
2022/08/16 00:07:27;;;;;;;6.07;3.50;;;;;;;16.61;74.72;93383.19;5028676;28;20403;-68
2022/08/16 00:09:57;;;;;;;6.05;3.55;;;;;;;16.68;74.60;93382.84;5029671;28;20037;-66
2022/08/16 00:12:27;;;;;;;6.27;3.50;;;;;;;16.58;75.00;93382.16;5028941;28;20045;-66
2022/08/16 00:15:09;;;;;;;5.63;3.33;;;;;;;16.53;75.49;93393.84;5029487;28;20049;-69
2022/08/16 00:17:37;;;;;;;5.47;3.30;;;;;;;16.60;74.95;93389.97;5008774;28;20339;-70
2022/08/16 00:20:23;;;;;;;5.75;3.10;;;;;;;16.57;74.89;93383.38;5009422;28;20505;-67
2022/08/16 00:22:51;;;;;;;5.85;3.67;;;;;;;16.55;75.02;93383.81;5009793;28;20410;-67
2022/08/16 00:25:21;;;;;;;5.13;3.40;;;;;;;16.49;75.36;93384.94;5008805;28;20046;-67
2022/08/16 00:28:08;;;;;;;6.25;3.55;;;;;;;16.32;75.86;93388.06;5008282;28;20057;-67
2022/08/16 00:30:37;;;;;;;6.28;3.60;;;;;;;16.14;76.78;93385.34;5009302;28;20041;-71
2022/08/16 00:33:05;;;;;;;6.13;3.35;;;;;;;16.10;77.00;93379.97;5008693;28;20521;-68
2022/08/16 00:35:36;;;;;;;6.38;3.60;;;;;;;16.04;77.18;93384.59;5009493;28;20045;-69
2022/08/16 00:38:05;;;;;;;6.83;3.73;;;;;;;16.02;77.11;93384.28;5008669;28;20042;-68
2022/08/16 00:40:53;;;;;;;5.65;3.50;;;;;;;15.82;77.77;93387.53;5009276;28;20410;-69
2022/08/16 00:43:25;;;;;;;11.10;3.47;;;;;;;15.61;78.72;93383.66;5008463;28;20457;-68
2022/08/16 00:46:18;;;;;;;6.50;3.75;;;;;;;15.61;78.55;93380.13;5026121;28;20054;-69
2022/08/16 00:48:59;;;;;;;6.20;3.65;;;;;;;15.65;78.48;93395.34;5009055;28;20050;-74
2022/08/16 00:51:28;;;;;;;6.63;3.70;;;;;;;15.56;79.04;93395.34;5027880;28;20855;-68
2022/08/16 00:53:55;;;;;;;6.80;3.60;;;;;;;15.43;79.61;93389.94;5027447;28;20513;-67
2022/08/16 00:56:27;;;;;;;6.57;4.10;;;;;;;15.48;79.26;93385.81;5028598;28;20461;-68
2022/08/16 00:59:15;;;;;;;8.18;5.50;;;;;;;15.56;78.59;93387.81;5028547;28;20510;-66
2022/08/16 01:01:44;;;;;;;7.35;4.45;;;;;;;15.53;78.86;93388.75;5028668;28;20140;-67
2022/08/16 01:04:13;;;;;;;7.53;3.90;;;;;;;15.45;79.12;93395.03;5027956;28;20045;-68
2022/08/16 01:06:58;;;;;;;6.72;4.05;;;;;;;15.50;78.68;93397.19;5028900;28;20103;-71
2022/08/16 01:09:30;;;;;;;6.50;4.20;;;;;;;15.40;79.47;93390.13;5027683;28;20529;-69
2022/08/16 01:12:05;;;;;;;6.95;3.80;;;;;;;15.41;79.35;93394.41;5028981;28;20053;-72
2022/08/16 01:14:41;;;;;;;5.57;3.50;;;;;;;15.33;79.85;93403.03;5027708;28;21365;-68
2022/08/16 01:17:11;;;;;;;6.07;3.50;;;;;;;15.15;80.55;93409.28;5027751;28;20042;-69
2022/08/16 01:19:59;;;;;;;10.35;6.63;;;;;;;15.20;80.22;93416.19;5028864;28;20049;-69
2022/08/16 01:22:56;;;;;;;11.05;7.32;;;;;;;15.07;80.71;93410.81;5027925;28;20699;-67
2022/08/16 01:25:29;;;;;;;8.10;4.10;;;;;;;15.03;81.11;93407.41;5014306;28;20403;-69
2022/08/16 01:28:05;;;;;;;6.72;3.70;;;;;;;15.08;80.80;93406.03;5028002;28;20041;-66
2022/08/16 01:30:37;;;;;;;5.97;3.73;;;;;;;15.11;80.51;93408.66;5028545;28;20418;-67
2022/08/16 01:33:17;;;;;;;6.38;3.80;;;;;;;15.13;80.97;93420.03;5031468;28;20056;-67
2022/08/16 01:36:05;;;;;;;6.32;3.83;;;;;;;15.21;80.58;93420.47;5032343;28;20099;-68
2022/08/16 01:38:41;;;;;;;6.72;3.88;;;;;;;15.24;80.34;93427.09;5031502;28;20551;-67
2022/08/16 01:41:20;;;;;;;6.22;3.60;;;;;;;15.35;80.16;93424.66;5031800;28;20056;-67
2022/08/16 01:43:51;;;;;;;5.23;3.67;;;;;;;15.42;80.02;93429.91;5032390;28;20386;-70
2022/08/16 01:46:29;;;;;;;7.57;3.78;;;;;;;15.43;79.75;93436.19;5031350;28;20045;-67
2022/08/16 01:49:31;;;;;;;7.82;4.00;;;;;;;15.49;79.02;93421.31;5031452;28;20122;-69
2022/08/16 01:52:19;;;;;;;5.82;3.63;;;;;;;15.46;79.48;93421.47;5022655;28;20049;-67
2022/08/16 01:54:56;;;;;;;6.63;4.00;;;;;;;15.49;79.52;93410.25;5030448;28;20412;-69
2022/08/16 01:57:23;;;;;;;6.23;3.60;;;;;;;15.52;79.48;93409.31;5031834;28;20045;-70
2022/08/16 01:59:50;;;;;;;6.72;3.80;;;;;;;15.53;79.17;93405.34;5032504;28;20045;-69
2022/08/16 02:02:23;;;;;;;6.45;3.60;;;;;;;15.48;79.12;93408.72;5031283;28;20053;-66
2022/08/16 02:04:54;;;;;;;8.55;5.72;;;;;;;15.34;80.26;93410.06;5032132;28;20443;-66
2022/08/16 02:07:23;;;;;;;8.85;4.80;;;;;;;15.21;80.82;93420.47;5030870;28;20045;-66
2022/08/16 02:09:52;;;;;;;10.33;5.77;;;;;;;15.25;80.39;93407.31;5031796;28;20332;-68
2022/08/16 02:12:27;;;;;;;6.03;3.80;;;;;;;15.16;81.19;93408.03;5030744;28;21466;-69
2022/08/16 02:15:15;;;;;;;6.57;4.10;;;;;;;15.09;81.58;93402.81;5031183;28;20173;-70
2022/08/16 02:17:42;;;;;;;6.38;4.05;;;;;;;15.10;81.48;93404.34;5031454;28;20423;-68
2022/08/16 02:20:11;;;;;;;5.82;3.75;;;;;;;15.03;81.76;93403.84;5026880;28;20042;-69
2022/08/16 02:22:38;;;;;;;6.53;3.60;;;;;;;15.05;81.78;93395.88;5031285;28;20072;-68
2022/08/16 02:25:10;;;;;;;5.78;3.45;;;;;;;15.01;82.08;93409.06;5030794;28;20059;-67
2022/08/16 02:27:43;;;;;;;7.10;3.75;;;;;;;14.90;82.11;93404.00;5031299;28;20053;-68
2022/08/16 02:30:13;;;;;;;5.85;3.50;;;;;;;14.57;82.68;93402.50;5031079;28;20098;-68
2022/08/16 02:33:02;;;;;;;6.93;4.20;;;;;;;14.29;84.44;93412.59;5030585;28;20053;-68
2022/08/16 02:35:30;;;;;;;6.57;4.10;;;;;;;14.31;84.42;93396.38;5031164;28;20391;-69
2022/08/16 02:37:57;;;;;;;5.97;3.80;;;;;;;14.32;84.38;93399.88;5029974;28;20372;-71
2022/08/16 02:40:30;;;;;;;6.53;4.00;;;;;;;14.28;84.41;93400.00;5030549;28;21603;-68
2022/08/16 02:42:57;;;;;;;7.97;4.40;;;;;;;14.30;85.05;93403.09;5030245;28;20052;-67
2022/08/16 02:45:27;;;;;;;6.80;4.15;;;;;;;14.35;84.61;93397.00;5029853;28;21446;-67
2022/08/16 02:47:54;;;;;;;7.33;4.17;;;;;;;14.47;84.19;93400.13;5031074;28;20417;-67
2022/08/16 02:50:41;;;;;;;8.48;4.00;;;;;;;14.54;83.93;93388.78;5029149;28;20075;-67
2022/08/16 02:53:28;;;;;;;6.53;4.15;;;;;;;14.57;83.90;93388.69;5030130;28;21480;-68
2022/08/16 02:55:55;;;;;;;5.90;3.90;;;;;;;14.39;84.86;93385.81;5030845;28;20094;-69
2022/08/16 02:58:22;;;;;;;7.22;3.80;;;;;;;14.42;84.92;93379.38;5029955;28;20041;-66
2022/08/16 03:00:52;;;;;;;8.10;4.13;;;;;;;14.46;84.72;93382.00;5030756;28;20059;-69
2022/08/16 03:03:23;;;;;;;6.53;4.20;;;;;;;14.50;84.24;93379.88;5029938;28;20037;-67
2022/08/16 03:05:51;;;;;;;7.85;4.43;;;;;;;14.46;84.34;93373.72;5030477;28;20052;-67
2022/08/16 03:08:21;;;;;;;8.88;4.40;;;;;;;14.37;84.52;93369.72;5029734;28;20037;-67
2022/08/16 03:11:08;;;;;;;6.15;3.95;;;;;;;14.31;84.66;93365.25;5015795;28;20044;-70
2022/08/16 03:13:48;;;;;;;6.50;4.03;;;;;;;14.34;84.40;93362.31;5030593;28;20053;-69
2022/08/16 03:16:17;;;;;;;7.18;4.30;;;;;;;14.35;84.47;93372.16;5014329;28;20495;-69
2022/08/16 03:19:05;;;;;;;7.72;4.30;;;;;;;14.34;84.44;93365.09;5030082;28;20045;-67
2022/08/16 03:21:34;;;;;;;7.35;4.38;;;;;;;14.30;84.39;93363.69;5030458;28;20050;-67
2022/08/16 03:24:08;;;;;;;7.15;4.00;;;;;;;14.24;84.77;93349.69;5029922;28;20438;-69
2022/08/16 03:26:57;;;;;;;5.90;3.80;;;;;;;14.31;84.46;93354.19;5027420;28;20049;-69
2022/08/16 03:29:30;;;;;;;6.55;3.95;;;;;;;14.35;84.34;93352.84;5030081;28;20110;-68
2022/08/16 03:31:58;;;;;;;7.50;4.65;;;;;;;14.28;84.72;93349.56;5030624;28;20041;-67
2022/08/16 03:34:28;;;;;;;7.75;4.15;;;;;;;14.16;85.05;93356.72;5028898;28;20828;-67
2022/08/16 03:36:56;;;;;;;6.65;4.13;;;;;;;14.08;85.38;93356.22;5030037;28;20049;-67
2022/08/16 03:39:23;;;;;;;6.70;4.20;;;;;;;13.95;85.82;93359.06;5029244;28;20466;-68
2022/08/16 03:41:50;;;;;;;7.53;4.32;;;;;;;13.99;86.00;93351.44;5029826;28;20049;-69
2022/08/16 03:44:27;;;;;;;7.93;4.50;;;;;;;13.95;85.40;93356.31;5028669;28;20848;-68
2022/08/16 03:47:13;;;;;;;7.97;4.57;;;;;;;13.94;85.54;93356.75;5029242;28;20705;-68
2022/08/16 03:49:46;;;;;;;7.60;4.45;;;;;;;13.94;85.71;93354.78;5029562;28;20038;-68
2022/08/16 03:52:17;;;;;;;7.97;4.57;;;;;;;13.87;86.07;93346.75;5029141;28;20098;-69
2022/08/16 03:54:47;;;;;;;7.63;4.57;;;;;;;13.90;86.27;93348.59;5029413;28;20483;-70
2022/08/16 03:57:25;;;;;;;7.70;4.82;;;;;;;13.69;87.46;93349.41;5028971;28;20666;-68
2022/08/16 04:00:14;;;;;;;8.98;4.72;;;;;;;13.48;88.90;93351.72;5029303;28;20056;-69
2022/08/16 04:03:06;;;;;;;8.65;4.63;;;;;;;13.49;88.77;93341.47;5028716;28;20414;-68
2022/08/16 04:05:37;;;;;;;7.90;4.57;;;;;;;13.53;88.36;93350.38;5029461;28;20049;-67
2022/08/16 04:08:05;;;;;;;7.70;4.50;;;;;;;13.56;87.96;93355.75;5028864;28;20043;-69
2022/08/16 04:10:52;;;;;;;6.97;4.30;;;;;;;13.48;87.03;93348.97;5029517;28;20046;-67
2022/08/16 04:13:20;;;;;;;7.03;4.38;;;;;;;13.57;86.90;93351.00;5028538;28;20045;-69
2022/08/16 04:16:08;;;;;;;8.20;4.60;;;;;;;13.54;87.47;93347.16;5017146;28;20041;-67
2022/08/16 04:18:53;;;;;;;8.47;4.90;;;;;;;13.38;88.69;93350.88;5029371;28;20048;-67
2022/08/16 04:21:32;;;;;;;6.82;4.47;;;;;;;13.36;88.68;93355.28;5027975;28;20755;-67
2022/08/16 04:24:01;;;;;;;8.57;4.68;;;;;;;13.43;88.22;93359.78;5028724;28;20048;-69
2022/08/16 04:26:29;;;;;;;7.07;4.30;;;;;;;13.44;88.58;93359.34;5028983;28;20057;-67
2022/08/16 04:28:59;;;;;;;7.32;4.25;;;;;;;13.49;87.62;93358.75;5027522;28;20041;-67
2022/08/16 04:31:47;;;;;;;6.63;4.20;;;;;;;13.53;87.46;93353.13;5015476;28;20110;-69
2022/08/16 04:34:27;;;;;;;8.00;4.30;;;;;;;13.30;88.15;93357.06;5028278;28;20041;-68
2022/08/16 04:36:57;;;;;;;8.30;4.57;;;;;;;13.16;88.90;93361.06;5028872;28;20620;-67
2022/08/16 04:39:28;;;;;;;8.30;4.60;;;;;;;13.17;88.76;93363.38;5027591;28;20453;-70
2022/08/16 04:42:14;;;;;;;7.82;4.88;;;;;;;13.24;88.98;93365.13;5028200;28;20048;-73
2022/08/16 04:44:42;;;;;;;6.93;4.63;;;;;;;13.33;88.73;93365.22;5028708;28;20056;-67
2022/08/16 04:47:27;;;;;;;7.90;4.80;;;;;;;13.48;87.79;93364.72;5028020;28;20520;-70
2022/08/16 04:49:59;;;;;;;7.75;4.60;;;;;;;13.45;86.98;93371.91;5028867;28;20053;-67
2022/08/16 04:52:28;;;;;;;7.05;4.60;;;;;;;13.65;86.10;93371.59;5027642;28;21656;-69
2022/08/16 04:55:00;;;;;;;7.70;4.32;;;;;;;13.78;85.37;93379.78;5028714;28;20122;-68
2022/08/16 04:57:29;;;;;;;6.80;4.13;;;;;;;13.71;85.23;93380.81;5027368;28;20484;-69
2022/08/16 04:59:56;;;;;;;7.13;4.63;;;;;;;13.88;84.40;93383.38;5028444;28;20395;-67
2022/08/16 05:02:23;;;;;;;6.50;4.53;;;;;;;13.97;83.73;93372.41;5027961;28;20063;-68
2022/08/16 05:05:11;;;;;;;7.15;4.32;;;;;;;13.81;84.76;93376.16;5027976;28;20057;-69
2022/08/16 05:07:44;;;;;;;7.15;4.15;;;;;;;13.90;84.27;93370.66;5028003;28;20050;-67
2022/08/16 05:10:26;;;;;;;6.93;4.50;;;;;;;13.76;84.64;93368.44;5027287;28;20919;-68
2022/08/16 05:12:56;;;;;;;7.70;4.60;;;;;;;13.73;85.08;93375.63;5028606;28;20068;-68
2022/08/16 05:15:24;;;;;;;8.63;4.60;;;;;;;13.79;85.17;93373.06;5027753;28;20045;-69
2022/08/16 05:17:52;;;;;;;6.78;4.30;;;;;;;13.83;84.89;93376.47;5028135;28;20045;-68
2022/08/16 05:20:25;;;;;;;8.23;4.80;;;;;;;13.77;84.98;93376.28;5027652;28;20037;-67
2022/08/16 05:23:11;;;;;;;6.83;4.70;;;;;;;13.75;85.22;93384.22;5027676;28;20047;-66
2022/08/16 05:25:39;;;;;;;9.40;5.10;;;;;;;13.67;85.68;93376.66;5028242;28;20037;-67
2022/08/16 05:28:16;;;;;;;9.10;5.00;;;;;;;13.51;86.04;93380.38;5027543;28;20081;-67
2022/08/16 05:30:44;;;;;;;7.82;4.47;;;;;;;13.83;85.36;93383.97;5028412;28;20053;-68
2022/08/16 05:33:16;;;;;;;7.72;4.40;;;;;;;14.15;84.19;93388.31;5027729;28;20045;-73
2022/08/16 05:35:45;;;;;;;6.43;4.50;;;;;;;14.22;83.70;93374.22;5028214;28;20037;-66
2022/08/16 05:38:26;;;;;;;7.32;4.72;;;;;;;14.44;82.33;93373.41;5015235;28;20052;-67
2022/08/16 05:41:06;;;;;;;8.32;5.03;;;;;;;14.43;83.07;93386.47;5027723;28;20049;-69
2022/08/16 05:43:36;;;;;;;7.32;4.70;;;;;;;14.42;82.37;93379.38;5027859;28;20049;-67
2022/08/16 05:46:18;;;;;;;7.53;4.90;;;;;;;14.23;84.08;93388.81;5027651;28;20047;-68
2022/08/16 05:49:00;;;;;;;9.30;4.67;;;;;;;14.27;84.13;93392.22;5028265;28;20049;-66
2022/08/16 05:51:35;;;;;;;7.32;4.78;;;;;;;14.41;84.36;93388.13;5027101;28;21476;-66
2022/08/16 05:54:10;;;;;;;9.07;5.15;;;;;;;14.58;83.52;93394.97;5026188;28;20697;-67
2022/08/16 05:56:40;;;;;;;7.95;4.82;;;;;;;14.78;82.68;93391.81;5027881;28;20120;-66
2022/08/16 05:59:09;;;;;;;8.55;4.80;;;;;;;15.10;81.85;93389.75;5027224;28;20041;-68
2022/08/16 06:01:37;;;;;;;8.37;4.87;;;;;;;15.20;81.25;93382.25;5026770;28;20056;-68
2022/08/16 06:04:06;;;;;;;9.18;4.90;;;;;;;14.89;82.89;93388.63;5028113;28;20095;-69
2022/08/16 06:06:54;;;;;;;8.38;4.95;;;;;;;15.27;81.54;93377.22;5015927;28;20100;-68
2022/08/16 06:09:24;;;;;;;7.00;4.80;;;;;;;15.35;81.31;93380.41;5027075;28;20574;-67
2022/08/16 06:12:09;;;;;;;7.03;4.75;;;;;;;15.36;81.13;93377.19;5027400;28;20037;-66
2022/08/16 06:14:36;;;;;;;8.17;4.37;;;;;;;15.63;80.40;93377.66;5027784;28;20064;-69
2022/08/16 06:17:06;;;;;;;7.38;4.80;;;;;;;16.42;78.31;93377.72;5027495;28;20039;-67
2022/08/16 06:19:33;;;;;;;6.78;4.57;;;;;;;19.56;66.26;93367.34;5031267;28;20465;-67
2022/08/16 06:22:01;;;;;;;7.88;4.40;;;;;;;21.92;57.52;93369.75;5031205;28;20046;-69
2022/08/16 06:24:28;;;;;;;7.20;4.30;;;;;;;23.32;52.89;93379.53;5031034;28;20045;-68
2022/08/16 06:27:15;;;;;;;6.40;4.10;;;;;;;23.82;50.96;93375.09;5030844;28;20414;-67
2022/08/16 06:29:43;;;;;;;6.75;4.15;;;;;;;25.04;48.52;93371.28;5029345;28;20041;-67
2022/08/16 06:32:15;;;;;;;7.07;4.70;;;;;;;26.05;45.54;93369.50;5030792;28;20510;-69
2022/08/16 06:34:54;;;;;;;5.72;4.25;;;;;;;26.97;42.94;93367.72;5030948;28;20076;-67
2022/08/16 06:37:29;;;;;;;5.60;4.05;;;;;;;27.81;40.95;93369.03;5030186;28;20733;-67
2022/08/16 06:40:04;;;;;;;7.23;4.00;;;;;;;28.69;40.02;93369.03;5030664;28;20045;-67
2022/08/16 06:42:39;;;;;;;5.57;3.85;;;;;;;28.34;39.44;93364.66;5030850;28;20107;-68
2022/08/16 06:45:14;;;;;;;6.13;4.00;;;;;;;29.01;38.56;93359.56;5030582;28;20115;-67
2022/08/16 06:47:41;;;;;;;5.85;4.03;;;;;;;30.20;36.21;93357.22;5030867;28;20397;-67
2022/08/16 06:50:19;;;;;;;5.10;3.53;;;;;;;31.33;33.36;93360.19;5030486;28;20595;-68
2022/08/16 06:52:54;;;;;;;5.30;3.80;;;;;;;29.48;36.97;93359.41;5030855;28;20041;-67
2022/08/16 06:55:35;;;;;;;5.93;3.90;;;;;;;30.44;35.22;93344.69;5029850;28;20661;-69
2022/08/16 06:58:04;;;;;;;5.00;3.80;;;;;;;30.15;35.52;93350.41;5029963;28;20041;-71
2022/08/16 07:00:35;;;;;;;4.88;4.10;;;;;;;30.40;35.19;93347.88;5028862;28;20056;-68
2022/08/16 07:03:05;;;;;;;7.47;4.03;;;;;;;30.80;34.64;93349.53;5027056;28;20449;-69
2022/08/16 07:05:52;;;;;;;6.87;4.00;;;;;;;30.07;36.07;93352.44;5030669;28;20051;-68
2022/08/16 07:08:19;;;;;;;5.97;3.72;;;;;;;30.46;35.39;93353.38;5029763;28;20076;-68
2022/08/16 07:10:46;;;;;;;5.68;3.95;;;;;;;31.18;33.97;93355.25;5030370;28;20037;-69
2022/08/16 07:13:14;;;;;;;7.05;4.45;;;;;;;31.06;33.34;93354.13;5029896;28;20103;-70
2022/08/16 07:16:02;;;;;;;6.75;3.90;;;;;;;32.01;32.22;93357.91;5029757;28;20045;-70
2022/08/16 07:18:31;;;;;;;6.77;4.00;;;;;;;32.40;30.89;93358.53;5030252;28;20263;-70
2022/08/16 07:20:59;;;;;;;6.07;4.05;;;;;;;33.17;30.39;93370.31;5045515;28;20086;-69
2022/08/16 07:23:28;;;;;;;6.10;4.15;;;;;;;31.65;32.34;93368.16;5029307;28;20738;-68
2022/08/16 07:26:08;;;;;;;4.93;4.30;;;;;;;30.28;34.54;93372.16;5030005;28;20051;-68
2022/08/16 07:28:36;;;;;;;5.93;4.47;;;;;;;30.46;34.39;93361.88;5014263;28;20045;-71
2022/08/16 07:31:03;;;;;;;5.63;4.10;;;;;;;29.45;35.76;93376.72;5029119;28;20046;-70
2022/08/16 07:33:39;;;;;;;6.68;4.15;;;;;;;30.51;33.98;93368.72;5029952;28;20402;-71
2022/08/16 07:36:21;;;;;;;6.57;4.15;;;;;;;29.32;36.50;93369.09;5029586;28;20053;-69
2022/08/16 07:38:48;;;;;;;5.25;4.13;;;;;;;28.44;37.31;93360.84;5029687;28;20075;-69
2022/08/16 07:41:16;;;;;;;7.97;4.57;;;;;;;29.20;36.67;93371.44;5028313;28;20041;-69
2022/08/16 07:43:45;;;;;;;6.10;4.10;;;;;;;28.86;37.22;93368.66;5029639;28;20391;-70
2022/08/16 07:46:13;;;;;;;6.55;4.10;;;;;;;27.86;39.40;93364.59;5029287;28;20100;-69
2022/08/16 07:49:03;;;;;;;5.55;4.22;;;;;;;28.97;36.77;93362.72;5029781;28;20139;-72
2022/08/16 07:51:36;;;;;;;9.00;4.55;;;;;;;28.67;37.06;93363.16;5028744;28;20056;-69
2022/08/16 07:54:05;;;;;;;6.88;4.55;;;;;;;28.62;37.22;93366.91;5029440;28;20095;-71
2022/08/16 07:56:36;;;;;;;6.40;4.60;;;;;;;29.60;35.53;93373.25;5014530;28;20052;-68
2022/08/16 07:59:05;;;;;;;5.75;4.30;;;;;;;28.85;36.20;93369.94;5029089;28;20454;-71
2022/08/16 08:01:33;;;;;;;6.32;4.40;;;;;;;29.37;35.41;93373.09;5029413;28;20064;-69
2022/08/16 08:04:01;;;;;;;5.88;4.50;;;;;;;29.64;34.73;93373.66;5017598;28;20071;-69
2022/08/16 08:06:31;;;;;;;7.18;4.78;;;;;;;28.68;36.47;93376.75;5028339;28;20395;-70
2022/08/16 08:08:59;;;;;;;7.10;4.43;;;;;;;29.56;34.82;93381.31;5029338;28;20038;-69
2022/08/16 08:11:28;;;;;;;5.40;4.45;;;;;;;27.92;38.13;93387.06;5028580;28;20456;-69
2022/08/16 08:13:59;;;;;;;8.27;4.47;;;;;;;28.15;37.25;93382.50;5027026;28;20041;-69
2022/08/16 08:16:31;;;;;;;6.10;4.30;;;;;;;28.63;36.80;93377.66;5028252;28;21418;-69
2022/08/16 08:18:59;;;;;;;7.10;4.57;;;;;;;28.91;35.89;93379.03;5027986;28;20256;-68
2022/08/16 08:21:31;;;;;;;5.87;4.33;;;;;;;28.38;36.39;93382.78;5028202;28;20046;-68
2022/08/16 08:24:20;;;;;;;6.22;4.63;;;;;;;27.47;38.45;93385.84;5016880;28;20045;-68
2022/08/16 08:26:47;;;;;;;7.00;4.50;;;;;;;29.44;35.72;93389.34;5028969;28;20042;-68
2022/08/16 08:29:17;;;;;;;7.72;4.40;;;;;;;30.41;33.49;93379.81;5028132;28;20053;-68
2022/08/16 08:31:51;;;;;;;6.95;4.47;;;;;;;28.51;36.71;93382.00;5029011;28;20417;-70
2022/08/16 08:34:20;;;;;;;7.17;4.40;;;;;;;29.19;35.74;93389.69;5028314;28;20041;-68
2022/08/16 08:36:49;;;;;;;8.75;4.30;;;;;;;29.94;34.14;93384.44;5028773;28;20061;-69
2022/08/16 08:39:20;;;;;;;6.63;4.60;;;;;;;29.74;34.39;93390.91;5028628;28;20048;-68
2022/08/16 08:41:47;;;;;;;6.10;4.50;;;;;;;30.43;33.04;93375.09;5028950;28;20042;-69
2022/08/16 08:44:17;;;;;;;5.20;4.13;;;;;;;32.22;29.91;93386.06;5028409;28;20051;-68
2022/08/16 08:46:58;;;;;;;6.80;4.10;;;;;;;32.32;29.69;93377.69;5016497;28;20041;-70
2022/08/16 08:49:30;;;;;;;6.90;4.25;;;;;;;30.59;32.59;93381.56;5027603;28;20705;-70
2022/08/16 08:52:17;;;;;;;7.65;4.20;;;;;;;30.06;32.84;93384.88;5028341;28;20076;-69
2022/08/16 08:55:06;;;;;;;7.05;4.13;;;;;;;31.42;30.70;93393.66;5028325;28;20146;-69
2022/08/16 08:57:42;;;;;;;6.85;4.28;;;;;;;27.60;37.03;93396.34;5028584;28;20056;-69
2022/08/16 09:00:12;;;;;;;7.50;4.60;;;;;;;26.98;38.27;93400.94;5028243;28;20053;-69
2022/08/16 09:02:43;;;;;;;6.57;4.57;;;;;;;28.20;36.49;93404.19;5028435;28;20046;-68
2022/08/16 09:05:19;;;;;;;7.15;4.60;;;;;;;27.35;37.99;93407.06;5014237;28;20055;-68
2022/08/16 09:07:48;;;;;;;6.30;4.30;;;;;;;27.16;38.15;93409.88;5028484;28;20119;-69
2022/08/16 09:10:29;;;;;;;6.68;4.85;;;;;;;24.75;43.37;93412.09;5027571;28;20935;-68
2022/08/16 09:12:58;;;;;;;7.00;4.50;;;;;;;24.80;44.23;93408.47;5028699;28;20056;-70
2022/08/16 09:15:25;;;;;;;6.30;4.60;;;;;;;24.35;45.07;93409.50;5028267;28;20067;-69
2022/08/16 09:18:00;;;;;;;8.00;4.20;;;;;;;26.51;40.70;93398.56;5028822;28;20048;-68
2022/08/16 09:20:48;;;;;;;7.72;4.68;;;;;;;24.65;44.12;93415.22;5027440;28;20055;-68
2022/08/16 09:23:30;;;;;;;9.13;4.68;;;;;;;24.15;45.12;93404.25;5027757;28;22550;-68
2022/08/16 09:26:07;;;;;;;6.57;4.50;;;;;;;25.98;40.71;93409.44;5028049;28;20059;-66
2022/08/16 09:28:54;;;;;;;7.72;4.63;;;;;;;27.03;38.83;93402.91;5014237;28;20045;-71
2022/08/16 09:31:41;;;;;;;6.93;4.88;;;;;;;26.70;38.52;93398.56;5027394;28;20068;-69
2022/08/16 09:34:08;;;;;;;7.72;4.63;;;;;;;26.03;40.49;93395.34;5027944;28;20505;-71
2022/08/16 09:36:36;;;;;;;6.18;4.38;;;;;;;28.92;35.03;93400.34;5028396;28;20103;-69
2022/08/16 09:39:12;;;;;;;6.83;4.30;;;;;;;28.76;35.63;93407.13;5046120;28;20045;-71
2022/08/16 09:41:43;;;;;;;6.35;4.03;;;;;;;27.82;36.67;93406.44;5028128;28;20044;-69
2022/08/16 09:44:23;;;;;;;6.72;4.60;;;;;;;27.21;37.88;93406.22;5027638;28;20037;-69
2022/08/16 09:47:10;;;;;;;5.82;4.30;;;;;;;27.82;36.98;93400.81;5026872;28;20122;-71
2022/08/16 09:49:37;;;;;;;5.90;4.60;;;;;;;27.04;38.11;93401.59;5027908;28;20033;-69
2022/08/16 09:52:08;;;;;;;8.43;4.80;;;;;;;27.72;37.04;93408.94;5027587;28;20068;-68
2022/08/16 09:54:37;;;;;;;9.20;4.60;;;;;;;27.17;37.01;93417.81;5031879;28;20049;-68
2022/08/16 09:57:04;;;;;;;7.47;4.70;;;;;;;26.24;39.30;93409.66;5031607;28;20434;-68
2022/08/16 09:59:32;;;;;;;6.60;4.85;;;;;;;26.68;38.21;93409.59;5031726;28;20482;-71
2022/08/16 10:02:05;;;;;;;8.52;4.70;;;;;;;27.67;36.36;93412.63;5031627;28;20053;-68
2022/08/16 10:04:52;;;;;;;5.80;3.90;;;;;;;29.21;34.31;93408.94;5031652;28;20483;-70
2022/08/16 10:07:21;;;;;;;6.53;4.30;;;;;;;28.62;34.82;93412.81;5031300;28;20046;-71
2022/08/16 10:09:48;;;;;;;6.50;4.45;;;;;;;28.56;34.96;93405.78;5031521;28;20041;-68
2022/08/16 10:15:12;;;;;;;6.03;4.18;;;;;;;28.67;34.34;93408.34;5031306;28;20084;-69
2022/08/16 10:17:45;;;;;;;6.57;4.30;;;;;;;30.43;31.17;93402.66;5031458;28;20052;-71
2022/08/16 10:20:29;;;;;;;6.03;4.07;;;;;;;31.43;29.31;93398.00;5030745;28;21922;-68
2022/08/16 10:22:56;;;;;;;7.53;4.30;;;;;;;29.61;32.37;93400.97;5031295;28;20042;-68
2022/08/16 10:25:32;;;;;;;5.57;4.07;;;;;;;29.79;32.91;93404.16;5030454;28;20436;-68
2022/08/16 10:28:19;;;;;;;6.70;4.30;;;;;;;31.38;29.99;93409.53;5030806;28;20057;-70
2022/08/16 10:30:57;;;;;;;5.30;3.93;;;;;;;32.49;28.73;93413.97;5031146;28;20134;-71
2022/08/16 10:33:26;;;;;;;6.22;4.10;;;;;;;32.00;28.42;93410.31;5030811;28;20371;-69
2022/08/16 10:35:56;;;;;;;6.75;4.60;;;;;;;29.67;32.07;93415.72;5031081;28;20073;-68
2022/08/16 10:38:29;;;;;;;7.57;4.35;;;;;;;31.58;28.87;93411.47;5030515;28;21030;-68
2022/08/16 10:40:59;;;;;;;5.47;4.30;;;;;;;30.72;30.46;93408.22;5029650;28;20049;-69
2022/08/16 10:43:27;;;;;;;6.07;4.13;;;;;;;29.93;31.64;93399.91;5030555;28;20837;-70
2022/08/16 10:45:57;;;;;;;6.30;4.30;;;;;;;29.15;33.03;93402.66;5031471;28;20102;-70
2022/08/16 10:48:28;;;;;;;45.90;5.25;;;;;;;27.56;36.21;93405.13;5030164;28;20732;-68
2022/08/16 10:50:57;;;;;;;5.40;4.20;;;;;;;28.94;34.03;93411.84;5030989;28;20049;-68
2022/08/16 10:53:26;;;;;;;5.68;4.20;;;;;;;30.35;31.33;93396.19;5030376;28;20041;-68
2022/08/16 10:56:04;;;;;;;7.40;4.33;;;;;;;29.85;31.91;93396.28;5030860;28;20057;-68
2022/08/16 10:58:51;;;;;;;6.32;4.18;;;;;;;30.56;29.79;93411.00;5029838;28;20572;-71
2022/08/16 11:01:18;;;;;;;5.68;4.50;;;;;;;29.92;31.56;93406.09;5030564;28;20051;-68
2022/08/16 11:04:06;;;;;;;7.32;4.43;;;;;;;31.09;29.84;93398.34;5026940;28;20053;-68
2022/08/16 11:06:53;;;;;;;5.40;4.15;;;;;;;30.90;30.26;93410.00;5030757;28;20075;-68
2022/08/16 11:09:40;;;;;;;6.70;4.03;;;;;;;30.40;31.54;93412.25;5029582;28;20467;-68
2022/08/16 11:12:11;;;;;;;7.32;4.70;;;;;;;30.55;30.60;93409.50;5029875;28;20124;-68
2022/08/16 11:14:40;;;;;;;6.20;4.65;;;;;;;30.14;32.00;93407.56;5030193;28;20050;-68
2022/08/16 11:17:27;;;;;;;6.75;4.90;;;;;;;29.33;33.20;93418.66;5029493;28;20046;-69
2022/08/16 11:19:58;;;;;;;6.78;4.75;;;;;;;29.35;33.19;93418.84;5030445;28;20530;-69
2022/08/16 11:22:47;;;;;;;6.43;4.80;;;;;;;29.00;33.92;93420.19;5029335;28;20064;-71
2022/08/16 11:25:17;;;;;;;6.38;4.60;;;;;;;28.82;34.25;93419.81;5029782;28;20038;-69
2022/08/16 11:28:06;;;;;;;7.18;4.82;;;;;;;27.78;35.11;93420.13;5029451;28;20053;-68
2022/08/16 11:30:34;;;;;;;7.38;4.78;;;;;;;28.02;35.34;93408.66;5030210;28;20041;-68
2022/08/16 11:33:06;;;;;;;6.80;4.80;;;;;;;27.85;35.48;93402.56;5029707;28;20041;-71
2022/08/16 11:35:33;;;;;;;7.97;4.90;;;;;;;28.05;35.45;93409.59;5030203;28;20071;-69
2022/08/16 11:38:22;;;;;;;6.93;4.80;;;;;;;27.38;36.59;93401.09;5029553;28;20049;-70
2022/08/16 11:41:11;;;;;;;5.97;4.60;;;;;;;27.93;35.45;93406.28;5014648;28;20053;-69
2022/08/16 11:43:41;;;;;;;7.32;4.80;;;;;;;27.20;36.17;93404.69;5029771;28;20052;-68
2022/08/16 11:46:11;;;;;;;6.03;4.80;;;;;;;27.00;37.36;93406.03;5029388;28;20041;-68
2022/08/16 11:48:58;;;;;;;6.57;4.80;;;;;;;26.56;37.63;93402.56;5029689;28;20391;-69
2022/08/16 11:51:25;;;;;;;7.10;4.93;;;;;;;27.43;35.98;93400.22;5061136;28;20405;-68
2022/08/16 11:53:52;;;;;;;8.10;4.90;;;;;;;27.62;35.61;93405.78;5029755;28;20046;-68
2022/08/16 11:56:20;;;;;;;6.68;4.60;;;;;;;28.10;34.44;93414.41;5029281;28;20050;-70
2022/08/16 11:59:07;;;;;;;7.10;5.03;;;;;;;27.49;35.25;93406.53;5019045;28;20053;-68
2022/08/16 12:01:35;;;;;;;7.47;4.70;;;;;;;27.17;35.59;93420.63;5029601;28;20060;-68
2022/08/16 12:04:22;;;;;;;6.35;4.63;;;;;;;26.79;36.82;93400.22;5017571;28;20116;-68
2022/08/16 12:06:51;;;;;;;8.27;4.80;;;;;;;27.50;35.77;93396.00;5060218;28;20041;-68
2022/08/16 12:09:21;;;;;;;6.70;4.65;;;;;;;26.62;36.78;93400.47;5028999;28;20425;-68
2022/08/16 12:11:50;;;;;;;6.35;5.00;;;;;;;26.73;36.46;93402.38;5028057;28;20041;-68